Steele, Missouri
Current Conditions -  °F | °C
As of 5:53 AM on Monday 20 Oct 2014 (Local Time) from KHKA Reporting Station
Few Clouds Few Clouds  
Wind Chill: 52°   Ceiling: Unl
Heat Index: 52°   Visibility: 10mi
Dew Point: 50°   Wind: 3mph
Humidity: 93%   Direction: 190°S
Pressure: 30.07"   Gusts: NA
Location:  36.08°N, 89.83°W
Report Text: KHKA 201053Z AUTO 19003KT 10SM FEW120 11/10 A3007 RMK AO2 SLP181 T01110100
Loading
Personal Weather Stations






























Interactive Weather Map
Tropical Storm Tracking
New forecast layout! Learn more

10-Day Weather Forecast

Advertisements
Track Severe Weather on mobile